createdAt,value
2022-08-05T00:00:52.460Z,56.43
2022-08-05T00:03:19.825Z,55.89
2022-08-05T00:06:05.671Z,56.59
2022-08-05T00:08:36.146Z,57.06
2022-08-05T00:11:03.869Z,60.25
2022-08-05T00:13:38.413Z,59.46
2022-08-05T00:16:12.428Z,56.95
2022-08-05T00:18:39.990Z,56.33
2022-08-05T00:21:09.057Z,56.38
2022-08-05T00:23:44.741Z,57.18
2022-08-05T00:26:13.949Z,58.85
2022-08-05T00:28:43.903Z,60.45
2022-08-05T00:31:13.180Z,57.31
2022-08-05T00:34:54.674Z,56.33
2022-08-05T00:37:10.602Z,56.01
2022-08-05T00:39:15.012Z,57.12
2022-08-05T00:41:51.593Z,57.65
2022-08-05T00:44:23.226Z,61.44
2022-08-05T00:47:02.059Z,58.39
2022-08-05T00:49:32.738Z,56.66
2022-08-05T00:52:11.999Z,56.13
2022-08-05T00:54:38.894Z,56.10
2022-08-05T00:57:06.480Z,57.09
2022-08-05T00:59:34.719Z,58.90
2022-08-05T01:02:16.873Z,60.65
2022-08-05T01:04:43.795Z,57.78
2022-08-05T01:07:13.741Z,56.34
2022-08-05T01:09:41.780Z,55.93
2022-08-05T01:12:17.867Z,57.09
2022-08-05T01:14:46.286Z,57.87
2022-08-05T01:17:13.352Z,61.36
2022-08-05T01:20:02.123Z,58.74
2022-08-05T01:22:28.150Z,56.92
2022-08-05T01:24:55.312Z,56.18
2022-08-05T01:27:22.361Z,55.73
2022-08-05T01:29:49.874Z,57.38
2022-08-05T01:32:18.912Z,57.69
2022-08-05T01:34:46.188Z,61.57
2022-08-05T01:37:24.360Z,58.19
2022-08-05T01:39:51.841Z,56.97
2022-08-05T01:42:21.336Z,55.98
2022-08-05T01:44:54.172Z,57.30
2022-08-05T01:47:22.852Z,57.85
2022-08-05T01:50:01.239Z,61.26
2022-08-05T01:52:29.609Z,58.79
2022-08-05T01:54:58.799Z,57.02
2022-08-05T01:58:12.558Z,56.14
2022-08-05T02:00:15.135Z,55.70
2022-08-05T02:02:46.549Z,56.67
2022-08-05T02:05:23.556Z,57.50
2022-08-05T02:08:01.386Z,61.44
2022-08-05T02:10:28.900Z,58.09
2022-08-05T02:12:55.800Z,57.08
2022-08-05T02:15:23.091Z,56.19
2022-08-05T02:18:33.258Z,55.98
2022-08-05T02:20:39.047Z,56.60
2022-08-05T02:23:06.384Z,57.40
2022-08-05T02:25:50.129Z,60.94
2022-08-05T02:28:28.479Z,57.97
2022-08-05T02:30:57.529Z,56.84
2022-08-05T02:33:38.191Z,56.01
2022-08-05T02:36:06.248Z,57.04
2022-08-05T02:38:36.894Z,57.79
2022-08-05T02:41:14.672Z,60.78
2022-08-05T02:44:06.299Z,58.97
2022-08-05T02:46:32.073Z,56.83
2022-08-05T02:48:59.792Z,56.22
2022-08-05T02:51:28.291Z,55.72
2022-08-05T02:54:34.841Z,57.27
2022-08-05T02:57:01.524Z,58.02
2022-08-05T02:59:28.648Z,61.12
2022-08-05T03:02:01.958Z,58.18
2022-08-05T03:04:29.317Z,56.92
2022-08-05T03:06:59.344Z,56.15
2022-08-05T03:09:36.326Z,56.20
2022-08-05T03:12:04.944Z,57.36
2022-08-05T03:14:31.888Z,59.37
2022-08-05T03:16:59.033Z,60.31
2022-08-05T03:19:33.174Z,57.39
2022-08-05T03:22:02.300Z,56.45
2022-08-05T03:24:32.157Z,55.86
2022-08-05T03:27:00.894Z,57.52
2022-08-05T03:29:44.765Z,57.88
2022-08-05T03:32:14.364Z,61.51
2022-08-05T03:34:41.415Z,58.50
2022-08-05T03:37:08.565Z,57.04
2022-08-05T03:39:59.379Z,56.25
2022-08-05T03:42:27.114Z,55.80
2022-08-05T03:44:55.847Z,57.54
2022-08-05T03:47:24.345Z,58.60
2022-08-05T03:49:52.455Z,60.83
2022-08-05T03:52:36.992Z,58.01
2022-08-05T03:56:01.645Z,56.84
2022-08-05T03:57:53.608Z,56.14
2022-08-05T04:00:25.934Z,56.77
2022-08-05T04:02:58.515Z,57.68
2022-08-05T04:05:26.007Z,59.72
2022-08-05T04:07:58.296Z,59.79
2022-08-05T04:10:27.634Z,57.30
2022-08-05T04:12:55.073Z,56.52
2022-08-05T04:15:24.333Z,56.15
2022-08-05T04:17:57.145Z,56.63
2022-08-05T04:20:24.242Z,57.57
2022-08-05T04:22:51.344Z,60.19
2022-08-05T04:25:18.271Z,60.32
2022-08-05T04:27:57.227Z,57.69
2022-08-05T04:30:26.479Z,56.65
2022-08-05T04:32:53.599Z,56.09
2022-08-05T04:35:20.647Z,56.58
2022-08-05T04:38:02.616Z,57.48
2022-08-05T04:40:33.522Z,60.44
2022-08-05T04:43:00.387Z,60.17
2022-08-05T04:45:47.817Z,57.72
2022-08-05T04:48:18.593Z,56.34
2022-08-05T04:51:03.002Z,56.18
2022-08-05T04:53:38.881Z,57.47
2022-08-05T04:56:32.659Z,58.04
2022-08-05T04:58:53.138Z,61.14
2022-08-05T05:02:05.827Z,59.05
2022-08-05T05:04:07.061Z,57.02
2022-08-05T05:06:39.919Z,56.46
2022-08-05T05:09:14.022Z,55.86
2022-08-05T05:11:53.166Z,56.96
2022-08-05T05:14:27.827Z,57.97
2022-08-05T05:17:00.693Z,61.30
2022-08-05T05:19:37.232Z,58.55
2022-08-05T05:22:24.015Z,57.03
2022-08-05T05:24:57.654Z,56.32
2022-08-05T05:27:41.735Z,56.13
2022-08-05T05:30:15.682Z,56.48
2022-08-05T05:32:56.846Z,58.52
2022-08-05T05:35:27.172Z,61.23
2022-08-05T05:38:01.487Z,58.61
2022-08-05T05:40:29.113Z,57.32
2022-08-05T05:42:56.769Z,56.54
2022-08-05T05:45:24.535Z,55.84
2022-08-05T05:48:06.164Z,57.14
2022-08-05T05:50:41.103Z,57.70
2022-08-05T05:53:22.281Z,61.72
2022-08-05T05:55:51.525Z,59.46
2022-08-05T05:58:31.743Z,57.70
2022-08-05T06:01:02.515Z,56.52
2022-08-05T06:04:01.100Z,56.46
2022-08-05T06:06:28.148Z,57.68
2022-08-05T06:08:58.636Z,59.20
2022-08-05T06:11:26.089Z,61.26
2022-08-05T06:13:56.227Z,58.36
2022-08-05T06:16:31.006Z,57.05
2022-08-05T06:19:01.294Z,56.45
2022-08-05T06:21:36.720Z,56.87
2022-08-05T06:24:05.261Z,57.84
2022-08-05T06:26:34.971Z,59.21
2022-08-05T06:29:03.528Z,61.22
2022-08-05T06:31:34.328Z,58.26
2022-08-05T06:34:07.570Z,56.98
2022-08-05T06:36:53.691Z,56.75
2022-08-05T06:39:26.859Z,56.72
2022-08-05T06:41:54.589Z,57.34
2022-08-05T06:44:22.035Z,59.40
2022-08-05T06:46:51.088Z,61.46
2022-08-05T06:49:18.792Z,58.48
2022-08-05T06:51:45.994Z,57.22
2022-08-05T06:54:19.282Z,56.62
2022-08-05T06:56:54.923Z,56.97
2022-08-05T06:59:42.384Z,57.50
2022-08-05T07:02:23.604Z,60.24
2022-08-05T07:04:51.773Z,60.71
2022-08-05T07:07:24.105Z,58.42
2022-08-05T07:10:03.389Z,57.02
2022-08-05T07:12:49.415Z,56.72
2022-08-05T07:16:02.029Z,57.26
2022-08-05T07:18:28.954Z,57.77
2022-08-05T07:20:56.593Z,62.18
2022-08-05T07:23:26.388Z,59.68
2022-08-05T07:25:57.156Z,57.80
2022-08-05T07:28:25.393Z,57.23
2022-08-05T07:30:55.087Z,56.60
2022-08-05T07:33:36.450Z,57.51
2022-08-05T07:36:21.163Z,58.18
2022-08-05T07:38:49.132Z,62.35
2022-08-05T07:42:08.806Z,59.14
2022-08-05T07:44:14.419Z,57.66
2022-08-05T07:46:48.177Z,57.10
2022-08-05T07:49:16.294Z,56.96
2022-08-05T07:51:53.092Z,57.71
2022-08-05T07:54:26.512Z,58.88
2022-08-05T07:57:01.718Z,61.46
2022-08-05T07:59:41.248Z,58.60
2022-08-05T08:02:10.731Z,57.49
2022-08-05T08:04:44.950Z,57.17
2022-08-05T08:07:12.121Z,56.68
2022-08-05T08:09:38.949Z,58.17
2022-08-05T08:12:14.581Z,59.40
2022-08-05T08:14:52.816Z,61.31
2022-08-05T08:17:19.636Z,58.76
2022-08-05T08:20:23.031Z,57.75
2022-08-05T08:22:35.321Z,57.04
2022-08-05T08:25:02.763Z,57.54
2022-08-05T08:27:40.088Z,57.82
2022-08-05T08:30:29.394Z,61.74
2022-08-05T08:33:02.427Z,59.70
2022-08-05T08:35:35.262Z,58.17
2022-08-05T08:38:08.458Z,57.31
2022-08-05T08:40:38.586Z,57.07
2022-08-05T08:45:16.139Z,57.54
2022-08-05T08:45:52.261Z,58.23
2022-08-05T08:48:41.344Z,62.18
2022-08-05T08:52:01.669Z,59.18
2022-08-05T08:53:53.251Z,57.96
2022-08-05T08:56:23.484Z,57.15
2022-08-05T08:58:53.857Z,58.07
2022-08-05T09:01:20.776Z,57.90
2022-08-05T09:03:54.516Z,60.39
2022-08-05T09:06:28.086Z,61.44
2022-08-05T09:08:57.258Z,58.98
2022-08-05T09:11:51.155Z,57.84
2022-08-05T09:14:57.274Z,57.24
2022-08-05T09:16:57.973Z,57.92
2022-08-05T09:19:28.018Z,58.33
2022-08-05T09:22:22.686Z,62.17
2022-08-05T09:24:50.522Z,59.96
2022-08-05T09:27:18.832Z,58.50
2022-08-05T09:30:06.553Z,57.73
2022-08-05T09:32:40.772Z,58.27
2022-08-05T09:35:12.734Z,58.82
2022-08-05T09:38:16.593Z,61.80
2022-08-05T09:40:41.049Z,60.76
2022-08-05T09:43:18.917Z,58.63
2022-08-05T09:46:06.177Z,57.90
2022-08-05T09:48:33.732Z,57.94
2022-08-05T09:51:00.595Z,58.35
2022-08-05T09:53:54.281Z,59.19
2022-08-05T09:56:14.930Z,62.09
2022-08-05T09:58:42.511Z,59.79
2022-08-05T10:01:13.542Z,58.41
2022-08-05T10:03:58.576Z,58.03
2022-08-05T10:06:27.477Z,58.40
2022-08-05T10:08:55.653Z,58.39
2022-08-05T10:11:22.830Z,60.37
2022-08-05T10:13:49.786Z,62.19
2022-08-05T10:16:21.626Z,59.64
2022-08-05T10:18:48.453Z,58.59
2022-08-05T10:21:18.258Z,58.05
2022-08-05T10:23:59.624Z,58.43
2022-08-05T10:26:32.386Z,57.96
2022-08-05T10:28:59.790Z,62.41
2022-08-05T10:33:01.294Z,61.46
2022-08-05T10:34:13.780Z,59.00
2022-08-05T10:36:41.132Z,58.22
2022-08-05T10:39:10.555Z,57.58
2022-08-05T10:41:45.340Z,58.92
2022-08-05T10:44:14.002Z,58.53
2022-08-05T10:46:43.381Z,63.08
2022-08-05T10:49:16.677Z,60.41
2022-08-05T10:51:57.504Z,58.89
2022-08-05T10:54:29.855Z,58.17
2022-08-05T10:56:58.679Z,58.54
2022-08-05T11:00:03.354Z,58.37
2022-08-05T11:02:14.510Z,61.98
2022-08-05T11:05:00.357Z,61.23
2022-08-05T11:07:33.150Z,59.50
2022-08-05T11:10:14.016Z,58.48
2022-08-05T11:12:42.211Z,58.13
2022-08-05T11:15:19.289Z,58.26
2022-08-05T11:17:59.654Z,58.46
2022-08-05T11:20:28.597Z,63.78
2022-08-05T11:23:05.832Z,60.52
2022-08-05T11:26:04.686Z,59.17
2022-08-05T11:28:19.738Z,58.64
2022-08-05T11:30:49.201Z,58.65
2022-08-05T11:33:21.143Z,58.86
2022-08-05T11:36:08.101Z,62.01
2022-08-05T11:38:45.769Z,60.98
2022-08-05T11:41:54.641Z,59.14
2022-08-05T11:44:08.405Z,58.45
2022-08-05T11:46:35.519Z,58.81
2022-08-05T11:49:02.318Z,58.31
2022-08-05T11:51:49.206Z,60.32
2022-08-05T11:54:15.948Z,63.04
2022-08-05T11:56:42.919Z,60.38
2022-08-05T11:59:17.117Z,59.21
2022-08-05T12:01:48.291Z,58.40
2022-08-05T12:04:19.319Z,58.38
2022-08-05T12:06:49.198Z,58.41
2022-08-05T12:09:20.245Z,63.11
2022-08-05T12:11:47.302Z,62.17
2022-08-05T12:14:14.409Z,59.98
2022-08-05T12:16:45.123Z,59.33
2022-08-05T12:20:27.120Z,58.48
2022-08-05T12:21:59.933Z,58.78
2022-08-05T12:24:28.107Z,58.88
2022-08-05T12:26:56.862Z,63.63
2022-08-05T12:29:24.498Z,61.14
2022-08-05T12:31:53.872Z,59.78
2022-08-05T12:34:23.628Z,58.93
2022-08-05T12:36:50.764Z,59.40
2022-08-05T12:39:19.074Z,59.13
2022-08-05T12:41:46.037Z,61.51
2022-08-05T12:44:14.274Z,63.44
2022-08-05T12:46:48.323Z,60.55
2022-08-05T12:49:19.045Z,59.46
2022-08-05T12:52:11.158Z,58.74
2022-08-05T12:54:32.886Z,59.05
2022-08-05T12:56:59.688Z,58.78
2022-08-05T12:59:46.866Z,63.36
2022-08-05T13:02:13.456Z,62.10
2022-08-05T13:04:41.856Z,60.23
2022-08-05T13:07:41.387Z,59.12
2022-08-05T13:10:06.110Z,59.44
2022-08-05T13:12:36.575Z,58.51
2022-08-05T13:15:24.121Z,63.26
2022-08-05T13:17:51.436Z,62.65
2022-08-05T13:20:24.628Z,60.64
2022-08-05T13:22:53.002Z,59.71
2022-08-05T13:25:22.124Z,59.14
2022-08-05T13:28:07.563Z,59.17
2022-08-05T13:30:39.081Z,59.12
2022-08-05T13:33:06.165Z,64.26
2022-08-05T13:35:47.161Z,61.75
2022-08-05T13:38:28.420Z,59.90
2022-08-05T13:40:58.047Z,59.45
2022-08-05T13:43:45.652Z,59.68
2022-08-05T13:46:11.760Z,59.11
2022-08-05T13:48:57.367Z,63.95
2022-08-05T13:51:25.449Z,62.01
2022-08-05T13:53:58.034Z,60.51
2022-08-05T13:56:25.957Z,59.46
2022-08-05T13:58:53.987Z,59.70
2022-08-05T14:01:25.889Z,59.00
2022-08-05T14:04:21.976Z,62.22
2022-08-05T14:06:58.730Z,63.33
2022-08-05T14:09:43.002Z,60.87
2022-08-05T14:12:17.986Z,59.93
2022-08-05T14:14:45.255Z,59.82
2022-08-05T14:17:16.861Z,60.29
2022-08-05T14:20:00.929Z,62.64
2022-08-05T14:22:34.555Z,63.41
2022-08-05T14:25:01.477Z,60.99
2022-08-05T14:27:28.470Z,60.17
2022-08-05T14:29:55.289Z,60.12
2022-08-05T14:32:27.823Z,59.19
2022-08-05T14:34:56.988Z,60.66
2022-08-05T14:37:47.206Z,64.34
2022-08-05T14:40:14.154Z,61.78
2022-08-05T14:42:43.525Z,60.39
2022-08-05T14:45:10.374Z,59.75
2022-08-05T14:48:02.495Z,59.76
2022-08-05T14:50:25.336Z,59.36
2022-08-05T14:52:57.046Z,62.91
2022-08-05T14:55:25.876Z,63.91
2022-08-05T14:58:11.417Z,61.63
2022-08-05T15:00:39.213Z,60.67
2022-08-05T15:03:25.831Z,59.98
2022-08-05T15:06:07.673Z,58.91
2022-08-05T15:08:59.552Z,59.42
2022-08-05T15:11:51.903Z,64.32
2022-08-05T15:14:33.605Z,63.23
2022-08-05T15:17:00.198Z,61.09
2022-08-05T15:19:27.088Z,60.13
2022-08-05T15:21:54.657Z,60.15
2022-08-05T15:24:26.917Z,59.77
2022-08-05T15:26:53.727Z,59.16
2022-08-05T15:29:22.709Z,64.07
2022-08-05T15:31:53.083Z,63.58
2022-08-05T15:34:31.998Z,61.33
2022-08-05T15:37:03.430Z,60.24
2022-08-05T15:40:41.798Z,59.91
2022-08-05T15:42:53.590Z,59.34
2022-08-05T15:45:06.054Z,60.20
2022-08-05T15:47:35.951Z,64.60
2022-08-05T15:50:03.171Z,63.31
2022-08-05T15:52:54.551Z,61.14
2022-08-05T15:55:19.532Z,60.35
2022-08-05T15:57:52.014Z,59.89
2022-08-05T16:00:30.460Z,59.69
2022-08-05T16:03:05.673Z,59.61
2022-08-05T16:05:32.589Z,64.57
2022-08-05T16:08:00.145Z,63.48
2022-08-05T16:10:27.198Z,61.34
2022-08-05T16:12:56.069Z,60.33
2022-08-05T16:15:23.130Z,59.78
2022-08-05T16:17:57.912Z,60.16
2022-08-05T16:20:25.090Z,60.26
2022-08-05T16:22:51.952Z,63.73
2022-08-05T16:25:18.748Z,63.26
2022-08-05T16:28:00.670Z,61.49
2022-08-05T16:30:32.207Z,60.32
2022-08-05T16:32:59.027Z,59.62
2022-08-05T16:35:28.667Z,60.02
2022-08-05T16:38:13.541Z,60.00
2022-08-05T16:40:47.821Z,64.27
2022-08-05T16:43:24.702Z,62.62
2022-08-05T16:46:06.745Z,60.84
2022-08-05T16:48:39.089Z,60.11
2022-08-05T16:51:09.067Z,59.45
2022-08-05T16:54:04.180Z,59.97
2022-08-05T16:56:23.509Z,61.85
2022-08-05T16:58:50.319Z,64.52
2022-08-05T17:01:18.734Z,62.20
2022-08-05T17:03:45.910Z,60.41
2022-08-05T17:06:12.730Z,59.76
2022-08-05T17:08:52.763Z,60.02
2022-08-05T17:11:20.893Z,60.34
2022-08-05T17:13:50.804Z,63.19
2022-08-05T17:16:32.974Z,63.66
2022-08-05T17:19:00.585Z,61.52
2022-08-05T17:21:35.421Z,60.15
2022-08-05T17:24:04.328Z,59.52
2022-08-05T17:26:34.999Z,59.59
2022-08-05T17:29:07.295Z,59.83
2022-08-05T17:31:57.033Z,62.56
2022-08-05T17:34:30.093Z,63.90
2022-08-05T17:36:59.336Z,61.25
2022-08-05T17:39:34.680Z,60.09
2022-08-05T17:42:18.440Z,59.67
2022-08-05T17:44:51.161Z,59.26
2022-08-05T17:47:18.936Z,59.45
2022-08-05T17:50:00.002Z,63.83
2022-08-05T17:52:31.331Z,63.22
2022-08-05T17:54:58.224Z,61.23
2022-08-05T17:57:25.043Z,60.11
2022-08-05T18:00:03.686Z,59.84
2022-08-05T18:02:32.700Z,59.70
2022-08-05T18:05:02.841Z,59.69
2022-08-05T18:07:41.536Z,64.23
2022-08-05T18:10:10.429Z,63.36
2022-08-05T18:12:37.723Z,61.26
2022-08-05T18:15:04.839Z,59.90
2022-08-05T18:17:58.739Z,59.51
2022-08-05T18:20:19.665Z,59.49
2022-08-05T18:22:57.473Z,59.56
2022-08-05T18:25:25.140Z,63.77
2022-08-05T18:27:52.865Z,63.71
2022-08-05T18:30:19.754Z,61.27
2022-08-05T18:32:53.662Z,60.22
2022-08-05T18:35:28.354Z,59.28
2022-08-05T18:38:18.918Z,59.22
2022-08-05T18:42:00.673Z,59.62
2022-08-05T18:43:38.088Z,61.81
2022-08-05T18:46:10.074Z,64.37
2022-08-05T18:48:41.615Z,61.72
2022-08-05T18:52:05.361Z,60.33
2022-08-05T18:54:14.221Z,59.50
2022-08-05T18:56:41.201Z,59.16
2022-08-05T18:59:43.777Z,59.60
2022-08-05T19:02:04.524Z,62.89
2022-08-05T19:05:01.699Z,63.93
2022-08-05T19:07:25.129Z,60.99
2022-08-05T19:09:56.676Z,60.35
2022-08-05T19:12:23.576Z,59.49
2022-08-05T19:15:00.638Z,58.93
2022-08-05T19:17:59.469Z,59.16
2022-08-05T19:20:16.536Z,59.46
2022-08-05T19:22:44.395Z,63.00
2022-08-05T19:25:11.215Z,63.91
2022-08-05T19:27:56.939Z,60.94
2022-08-05T19:30:23.959Z,60.13
2022-08-05T19:32:50.870Z,59.19
2022-08-05T19:35:17.771Z,58.84
2022-08-05T19:38:06.172Z,58.86
2022-08-05T19:40:34.985Z,59.71
2022-08-05T19:43:05.265Z,63.06
2022-08-05T19:45:36.275Z,63.43
2022-08-05T19:48:04.488Z,61.22
2022-08-05T19:50:32.946Z,59.81
2022-08-05T19:53:09.603Z,59.20
2022-08-05T19:56:15.272Z,58.93
2022-08-05T19:58:29.319Z,58.60
2022-08-05T20:00:56.919Z,58.80
2022-08-05T20:03:24.641Z,63.28
2022-08-05T20:05:56.364Z,63.18
2022-08-05T20:08:24.248Z,60.94
2022-08-05T20:10:51.663Z,59.82
2022-08-05T20:13:30.365Z,59.43
2022-08-05T20:16:06.001Z,58.56
2022-08-05T20:18:36.151Z,58.77
2022-08-05T20:21:04.679Z,59.28
2022-08-05T20:23:40.055Z,63.32
2022-08-05T20:26:17.720Z,63.42
2022-08-05T20:28:44.658Z,60.76
2022-08-05T20:31:11.548Z,59.90
2022-08-05T20:33:38.447Z,59.24
2022-08-05T20:36:10.198Z,58.55
2022-08-05T20:38:38.093Z,58.66
2022-08-05T20:41:08.442Z,59.01
2022-08-05T20:43:58.762Z,63.06
2022-08-05T20:46:24.825Z,63.25
2022-08-05T20:48:52.062Z,61.11
2022-08-05T20:51:18.864Z,59.87
2022-08-05T20:53:56.442Z,59.04
2022-08-05T20:56:27.699Z,58.85
2022-08-05T20:58:59.995Z,58.60
2022-08-05T21:01:38.783Z,59.13
2022-08-05T21:04:10.020Z,60.83
2022-08-05T21:06:37.650Z,63.76
2022-08-05T21:09:12.253Z,61.30
2022-08-05T21:12:07.602Z,59.99
2022-08-05T21:14:28.667Z,59.13
2022-08-05T21:17:01.465Z,58.83
2022-08-05T21:19:29.840Z,58.60
2022-08-05T21:22:14.603Z,58.71
2022-08-05T21:24:41.404Z,59.84
2022-08-05T21:27:09.430Z,63.57
2022-08-05T21:29:40.738Z,62.24
2022-08-05T21:32:07.780Z,60.73
2022-08-05T21:34:35.384Z,59.23
2022-08-05T21:37:02.551Z,58.82
2022-08-05T21:39:29.513Z,58.62
2022-08-05T21:42:01.947Z,58.33
2022-08-05T21:44:29.232Z,58.30
2022-08-05T21:46:58.339Z,63.11
2022-08-05T21:49:48.655Z,63.23
2022-08-05T21:52:16.526Z,60.95
2022-08-05T21:54:51.129Z,59.74
2022-08-05T21:57:31.611Z,58.92
2022-08-05T22:00:05.823Z,58.47
2022-08-05T22:02:33.843Z,58.39
2022-08-05T22:05:00.677Z,58.24
2022-08-05T22:07:39.483Z,62.70
2022-08-05T22:10:14.681Z,63.26
2022-08-05T22:12:44.704Z,61.01
2022-08-05T22:15:12.059Z,59.57
2022-08-05T22:17:56.292Z,59.12
2022-08-05T22:20:26.495Z,58.58
2022-08-05T22:23:17.099Z,58.42
2022-08-05T22:26:10.573Z,58.79
2022-08-05T22:28:38.673Z,62.58
2022-08-05T22:31:05.950Z,63.76
2022-08-05T22:33:55.907Z,61.32
2022-08-05T22:36:24.050Z,59.92
2022-08-05T22:38:51.113Z,58.96
2022-08-05T22:42:05.019Z,58.58
2022-08-05T22:44:04.828Z,58.27
2022-08-05T22:46:32.101Z,58.13
2022-08-05T22:48:59.307Z,58.28
2022-08-05T22:52:02.748Z,63.08
2022-08-05T22:54:12.904Z,62.55
2022-08-05T22:56:40.895Z,60.54
2022-08-05T22:59:44.236Z,59.32
2022-08-05T23:02:05.725Z,58.43
2022-08-05T23:04:34.435Z,58.22
2022-08-05T23:07:01.321Z,58.10
2022-08-05T23:09:57.951Z,57.79
2022-08-05T23:12:17.657Z,61.20
2022-08-05T23:14:44.574Z,63.84
2022-08-05T23:17:24.466Z,61.54
2022-08-05T23:19:59.678Z,59.85
2022-08-05T23:22:27.200Z,59.04
2022-08-05T23:24:54.682Z,58.47
2022-08-05T23:27:21.497Z,57.97
2022-08-05T23:29:50.661Z,57.73
2022-08-05T23:32:22.551Z,58.48
2022-08-05T23:34:49.504Z,62.84
2022-08-05T23:37:17.726Z,63.18
2022-08-05T23:39:54.577Z,60.82
2022-08-05T23:42:23.410Z,59.54
2022-08-05T23:44:54.439Z,58.67
2022-08-05T23:47:21.457Z,58.09
2022-08-05T23:49:52.001Z,57.88
2022-08-05T23:52:36.135Z,56.95
2022-08-05T23:55:16.373Z,53.28
2022-08-05T23:57:44.264Z,57.70
